This is the latest recevied weather packets stored in our database for station/object OK6FS-6. If no packets are shown the sender has not sent any weather packets the latest 10 day(s).
| Time | Temp. | Humidity | Pressure | Rain* | Wind** | Luminosity | Snow |
|---|---|---|---|---|---|---|---|
| 1777900001 | 27.22° C | 34% | 1015.5 hPa | - | - | - | - |
| 1777897858 | 26.67° C | 35% | 1016 hPa | - | - | - | - |
| 1777894961 | 26.11° C | 35% | 1016.5 hPa | - | - | - | - |
| 1777892797 | 26.11° C | 36% | 1016.8 hPa | - | - | - | - |
| 1777891354 | 25° C | 38% | 1017.1 hPa | - | - | - | - |
| 1777889196 | 25.56° C | 37% | 1017.5 hPa | - | - | - | - |
| 1777880594 | 24.44° C | 36% | 1017.8 hPa | - | - | - | - |
| 1777879118 | 22.78° C | 36% | 1017.6 hPa | - | - | - | - |
| 1777875512 | 19.44° C | 47% | 1017.5 hPa | - | - | - | - |
| 1777871187 | 15° C | 54% | 1017.4 hPa | - | - | - | - |
| 1777867594 | 13.89° C | 53% | 1017.2 hPa | - | - | - | - |
| 1777853207 | 15.56° C | 47% | 1017.2 hPa | - | - | - | - |
| 1777843160 | 16.67° C | 43% | 1017.7 hPa | - | - | - | - |
| 1777841674 | 17.22° C | 43% | 1017.7 hPa | - | - | - | - |
| 1777840229 | 17.78° C | 43% | 1017.9 hPa | - | - | - | - |
| 1777836635 | 18.89° C | 43% | 1018.1 hPa | - | - | - | - |
| 1777831585 | 21.67° C | 39% | 1017.5 hPa | - | - | - | - |
| 1777830150 | 22.22° C | 38% | 1017.4 hPa | - | - | - | - |
| 1777825834 | 23.89° C | 36% | 1017.4 hPa | - | - | - | - |
| 1777821512 | 24.44° C | 36% | 1017.7 hPa | - | - | - | - |
| 1777820076 | 25° C | 35% | 1017.9 hPa | - | - | - | - |
| 1777812880 | 25° C | 35% | 1019.4 hPa | - | - | - | - |
| 1777809267 | 25° C | 35% | 1020.2 hPa | - | - | - | - |
| 1777799912 | 23.89° C | 31% | 1021.9 hPa | - | - | - | - |
| 1777799199 | 23.33° C | 30% | 1022 hPa | - | - | - | - |
* Rain since midnight (hover to see other rain measurements)
** Current wind speed in m/s (hover to see current wind gust speed)